sensor_id;sensor_type;location;lat;lon;timestamp;P1;durP1;ratioP1;P2;durP2;ratioP2
23300;SDS011;11819;51.394;12.340;2023-06-24T00:01:23;35.63;;;23.35;;
23300;SDS011;11819;51.394;12.340;2023-06-24T00:03:50;33.42;;;23.48;;
23300;SDS011;11819;51.394;12.340;2023-06-24T00:06:18;31.55;;;23.55;;
23300;SDS011;11819;51.394;12.340;2023-06-24T00:08:45;36.63;;;24.05;;
23300;SDS011;11819;51.394;12.340;2023-06-24T00:11:11;30.30;;;23.02;;
23300;SDS011;11819;51.394;12.340;2023-06-24T00:13:38;28.48;;;22.42;;
23300;SDS011;11819;51.394;12.340;2023-06-24T00:16:04;31.58;;;21.60;;
23300;SDS011;11819;51.394;12.340;2023-06-24T00:18:31;37.25;;;23.02;;
23300;SDS011;11819;51.394;12.340;2023-06-24T00:20:57;28.77;;;19.90;;
23300;SDS011;11819;51.394;12.340;2023-06-24T00:23:23;32.35;;;21.30;;
23300;SDS011;11819;51.394;12.340;2023-06-24T00:25:52;28.42;;;19.90;;
23300;SDS011;11819;51.394;12.340;2023-06-24T00:28:19;29.08;;;19.67;;
23300;SDS011;11819;51.394;12.340;2023-06-24T00:30:45;39.35;;;20.27;;
23300;SDS011;11819;51.394;12.340;2023-06-24T00:33:11;29.65;;;19.10;;
23300;SDS011;11819;51.394;12.340;2023-06-24T00:35:38;24.95;;;18.60;;
23300;SDS011;11819;51.394;12.340;2023-06-24T00:38:04;29.17;;;20.13;;
23300;SDS011;11819;51.394;12.340;2023-06-24T00:40:32;27.35;;;20.45;;
23300;SDS011;11819;51.394;12.340;2023-06-24T00:42:58;30.55;;;20.08;;
23300;SDS011;11819;51.394;12.340;2023-06-24T00:45:26;27.25;;;19.42;;
23300;SDS011;11819;51.394;12.340;2023-06-24T00:47:52;22.63;;;18.33;;
23300;SDS011;11819;51.394;12.340;2023-06-24T00:50:20;24.88;;;18.85;;
23300;SDS011;11819;51.394;12.340;2023-06-24T00:52:46;24.17;;;19.25;;
23300;SDS011;11819;51.394;12.340;2023-06-24T00:55:12;24.70;;;18.98;;
23300;SDS011;11819;51.394;12.340;2023-06-24T00:57:40;30.48;;;19.10;;
23300;SDS011;11819;51.394;12.340;2023-06-24T01:00:07;28.40;;;20.73;;
23300;SDS011;11819;51.394;12.340;2023-06-24T01:02:39;28.58;;;19.65;;
23300;SDS011;11819;51.394;12.340;2023-06-24T01:05:07;25.42;;;18.58;;
23300;SDS011;11819;51.394;12.340;2023-06-24T01:07:33;30.73;;;19.63;;
23300;SDS011;11819;51.394;12.340;2023-06-24T01:10:02;28.58;;;19.42;;
23300;SDS011;11819;51.394;12.340;2023-06-24T01:12:34;25.98;;;20.02;;
23300;SDS011;11819;51.394;12.340;2023-06-24T01:15:01;30.48;;;19.73;;
23300;SDS011;11819;51.394;12.340;2023-06-24T01:20:25;30.98;;;20.23;;
23300;SDS011;11819;51.394;12.340;2023-06-24T01:31:39;29.25;;;19.80;;
23300;SDS011;11819;51.394;12.340;2023-06-24T01:37:19;29.15;;;19.88;;
23300;SDS011;11819;51.394;12.340;2023-06-24T01:39:52;30.05;;;19.77;;
23300;SDS011;11819;51.394;12.340;2023-06-24T01:42:30;27.60;;;20.00;;
23300;SDS011;11819;51.394;12.340;2023-06-24T01:44:57;30.60;;;20.02;;
23300;SDS011;11819;51.394;12.340;2023-06-24T01:47:23;28.05;;;18.70;;
23300;SDS011;11819;51.394;12.340;2023-06-24T01:49:52;28.02;;;19.90;;
23300;SDS011;11819;51.394;12.340;2023-06-24T01:52:20;28.45;;;19.60;;
23300;SDS011;11819;51.394;12.340;2023-06-24T01:54:48;29.08;;;20.40;;
23300;SDS011;11819;51.394;12.340;2023-06-24T01:57:15;29.20;;;20.33;;
23300;SDS011;11819;51.394;12.340;2023-06-24T01:59:42;28.73;;;19.73;;
23300;SDS011;11819;51.394;12.340;2023-06-24T02:02:11;31.85;;;19.85;;
23300;SDS011;11819;51.394;12.340;2023-06-24T02:04:38;29.73;;;20.48;;
23300;SDS011;11819;51.394;12.340;2023-06-24T02:07:04;27.13;;;20.73;;
23300;SDS011;11819;51.394;12.340;2023-06-24T02:09:31;27.77;;;19.15;;
23300;SDS011;11819;51.394;12.340;2023-06-24T02:11:58;29.58;;;18.85;;
23300;SDS011;11819;51.394;12.340;2023-06-24T02:14:26;27.10;;;18.88;;
23300;SDS011;11819;51.394;12.340;2023-06-24T02:16:53;25.58;;;18.90;;
23300;SDS011;11819;51.394;12.340;2023-06-24T02:19:25;29.80;;;19.52;;
23300;SDS011;11819;51.394;12.340;2023-06-24T02:21:56;24.40;;;18.58;;
23300;SDS011;11819;51.394;12.340;2023-06-24T02:24:27;24.48;;;18.33;;
23300;SDS011;11819;51.394;12.340;2023-06-24T02:26:53;27.10;;;18.50;;
23300;SDS011;11819;51.394;12.340;2023-06-24T02:29:22;23.25;;;18.63;;
23300;SDS011;11819;51.394;12.340;2023-06-24T02:31:49;25.38;;;18.50;;
23300;SDS011;11819;51.394;12.340;2023-06-24T02:34:15;25.38;;;19.20;;
23300;SDS011;11819;51.394;12.340;2023-06-24T02:36:41;25.30;;;18.67;;
23300;SDS011;11819;51.394;12.340;2023-06-24T02:39:07;31.90;;;18.50;;
23300;SDS011;11819;51.394;12.340;2023-06-24T02:41:32;27.38;;;18.15;;
23300;SDS011;11819;51.394;12.340;2023-06-24T02:43:58;25.08;;;17.92;;
23300;SDS011;11819;51.394;12.340;2023-06-24T02:46:24;23.58;;;18.05;;
23300;SDS011;11819;51.394;12.340;2023-06-24T02:48:50;27.75;;;18.38;;
23300;SDS011;11819;51.394;12.340;2023-06-24T02:51:17;29.70;;;18.92;;
23300;SDS011;11819;51.394;12.340;2023-06-24T02:53:43;25.38;;;18.05;;
23300;SDS011;11819;51.394;12.340;2023-06-24T02:56:12;24.75;;;17.17;;
23300;SDS011;11819;51.394;12.340;2023-06-24T02:58:41;26.25;;;17.33;;
23300;SDS011;11819;51.394;12.340;2023-06-24T03:01:15;26.58;;;16.27;;
23300;SDS011;11819;51.394;12.340;2023-06-24T03:03:45;27.45;;;16.88;;
23300;SDS011;11819;51.394;12.340;2023-06-24T03:06:16;24.77;;;16.77;;
23300;SDS011;11819;51.394;12.340;2023-06-24T03:08:43;22.73;;;15.90;;
23300;SDS011;11819;51.394;12.340;2023-06-24T03:11:12;29.00;;;17.50;;
23300;SDS011;11819;51.394;12.340;2023-06-24T03:13:39;22.30;;;16.40;;
23300;SDS011;11819;51.394;12.340;2023-06-24T03:16:14;22.25;;;16.02;;
23300;SDS011;11819;51.394;12.340;2023-06-24T03:18:59;23.52;;;16.38;;
23300;SDS011;11819;51.394;12.340;2023-06-24T03:21:26;22.15;;;16.00;;
23300;SDS011;11819;51.394;12.340;2023-06-24T03:23:54;23.85;;;16.50;;
23300;SDS011;11819;51.394;12.340;2023-06-24T03:26:20;27.42;;;16.33;;
23300;SDS011;11819;51.394;12.340;2023-06-24T03:28:46;25.35;;;17.50;;
23300;SDS011;11819;51.394;12.340;2023-06-24T03:31:15;25.77;;;16.98;;
23300;SDS011;11819;51.394;12.340;2023-06-24T03:33:41;20.38;;;15.73;;
23300;SDS011;11819;51.394;12.340;2023-06-24T03:36:11;20.42;;;15.45;;
23300;SDS011;11819;51.394;12.340;2023-06-24T03:38:38;23.27;;;16.42;;
23300;SDS011;11819;51.394;12.340;2023-06-24T03:41:05;24.25;;;15.93;;
23300;SDS011;11819;51.394;12.340;2023-06-24T03:43:31;19.38;;;14.25;;
23300;SDS011;11819;51.394;12.340;2023-06-24T03:45:58;21.08;;;15.07;;
23300;SDS011;11819;51.394;12.340;2023-06-24T03:48:25;22.30;;;15.43;;
23300;SDS011;11819;51.394;12.340;2023-06-24T03:50:52;21.23;;;15.07;;
23300;SDS011;11819;51.394;12.340;2023-06-24T03:53:19;22.02;;;14.07;;
23300;SDS011;11819;51.394;12.340;2023-06-24T03:55:45;22.02;;;13.50;;
23300;SDS011;11819;51.394;12.340;2023-06-24T03:58:12;20.58;;;13.88;;
23300;SDS011;11819;51.394;12.340;2023-06-24T04:00:39;20.40;;;13.68;;
23300;SDS011;11819;51.394;12.340;2023-06-24T04:03:05;18.17;;;13.57;;
23300;SDS011;11819;51.394;12.340;2023-06-24T04:05:32;19.38;;;13.10;;
23300;SDS011;11819;51.394;12.340;2023-06-24T04:07:58;19.55;;;13.48;;
23300;SDS011;11819;51.394;12.340;2023-06-24T04:10:24;20.63;;;14.63;;
23300;SDS011;11819;51.394;12.340;2023-06-24T04:12:50;20.75;;;13.27;;
23300;SDS011;11819;51.394;12.340;2023-06-24T04:15:16;23.83;;;13.98;;
23300;SDS011;11819;51.394;12.340;2023-06-24T04:17:42;20.17;;;13.40;;
23300;SDS011;11819;51.394;12.340;2023-06-24T04:20:08;21.30;;;13.60;;
23300;SDS011;11819;51.394;12.340;2023-06-24T04:22:36;19.85;;;14.18;;
23300;SDS011;11819;51.394;12.340;2023-06-24T04:25:03;21.27;;;13.18;;
23300;SDS011;11819;51.394;12.340;2023-06-24T04:27:34;20.67;;;12.90;;
23300;SDS011;11819;51.394;12.340;2023-06-24T04:30:02;18.65;;;13.23;;
23300;SDS011;11819;51.394;12.340;2023-06-24T04:32:30;19.48;;;13.13;;
23300;SDS011;11819;51.394;12.340;2023-06-24T04:34:55;24.00;;;13.10;;
23300;SDS011;11819;51.394;12.340;2023-06-24T04:37:23;22.92;;;14.18;;
23300;SDS011;11819;51.394;12.340;2023-06-24T04:39:51;20.20;;;13.70;;
23300;SDS011;11819;51.394;12.340;2023-06-24T04:42:16;19.35;;;13.80;;
23300;SDS011;11819;51.394;12.340;2023-06-24T04:44:42;21.25;;;13.68;;
23300;SDS011;11819;51.394;12.340;2023-06-24T04:47:08;18.90;;;13.90;;
23300;SDS011;11819;51.394;12.340;2023-06-24T04:49:33;19.83;;;14.45;;
23300;SDS011;11819;51.394;12.340;2023-06-24T04:52:02;17.08;;;12.48;;
23300;SDS011;11819;51.394;12.340;2023-06-24T04:54:28;23.70;;;13.98;;
23300;SDS011;11819;51.394;12.340;2023-06-24T04:56:53;20.65;;;14.27;;
23300;SDS011;11819;51.394;12.340;2023-06-24T04:59:22;19.88;;;13.50;;
23300;SDS011;11819;51.394;12.340;2023-06-24T05:01:48;19.80;;;14.77;;
23300;SDS011;11819;51.394;12.340;2023-06-24T05:04:13;18.73;;;13.18;;
23300;SDS011;11819;51.394;12.340;2023-06-24T05:06:39;18.58;;;13.25;;
23300;SDS011;11819;51.394;12.340;2023-06-24T05:09:04;19.65;;;13.85;;
23300;SDS011;11819;51.394;12.340;2023-06-24T05:11:30;17.45;;;13.80;;
23300;SDS011;11819;51.394;12.340;2023-06-24T05:13:56;22.70;;;13.90;;
23300;SDS011;11819;51.394;12.340;2023-06-24T05:16:22;23.65;;;14.50;;
23300;SDS011;11819;51.394;12.340;2023-06-24T05:18:49;22.05;;;14.48;;
23300;SDS011;11819;51.394;12.340;2023-06-24T05:21:15;21.35;;;14.35;;
23300;SDS011;11819;51.394;12.340;2023-06-24T05:23:41;19.05;;;13.18;;
23300;SDS011;11819;51.394;12.340;2023-06-24T05:26:06;18.42;;;13.18;;
23300;SDS011;11819;51.394;12.340;2023-06-24T05:28:32;16.00;;;13.15;;
23300;SDS011;11819;51.394;12.340;2023-06-24T05:30:58;21.60;;;14.35;;
23300;SDS011;11819;51.394;12.340;2023-06-24T05:33:23;19.38;;;15.30;;
23300;SDS011;11819;51.394;12.340;2023-06-24T05:35:49;19.60;;;13.93;;
23300;SDS011;11819;51.394;12.340;2023-06-24T05:38:15;20.65;;;14.20;;
23300;SDS011;11819;51.394;12.340;2023-06-24T05:40:41;21.45;;;13.82;;
23300;SDS011;11819;51.394;12.340;2023-06-24T05:43:07;19.95;;;13.23;;
23300;SDS011;11819;51.394;12.340;2023-06-24T05:45:32;18.73;;;13.20;;
23300;SDS011;11819;51.394;12.340;2023-06-24T05:47:58;21.48;;;13.95;;
23300;SDS011;11819;51.394;12.340;2023-06-24T05:50:23;20.00;;;12.75;;
23300;SDS011;11819;51.394;12.340;2023-06-24T05:52:49;17.77;;;12.77;;
23300;SDS011;11819;51.394;12.340;2023-06-24T05:55:14;22.48;;;14.20;;
23300;SDS011;11819;51.394;12.340;2023-06-24T05:57:40;19.15;;;13.10;;
23300;SDS011;11819;51.394;12.340;2023-06-24T06:00:06;18.02;;;13.13;;
23300;SDS011;11819;51.394;12.340;2023-06-24T06:02:37;20.55;;;14.48;;
23300;SDS011;11819;51.394;12.340;2023-06-24T06:05:03;20.15;;;13.52;;
23300;SDS011;11819;51.394;12.340;2023-06-24T06:07:28;23.20;;;13.75;;
23300;SDS011;11819;51.394;12.340;2023-06-24T06:09:54;21.35;;;14.05;;
23300;SDS011;11819;51.394;12.340;2023-06-24T06:12:20;22.17;;;13.00;;
23300;SDS011;11819;51.394;12.340;2023-06-24T06:14:46;19.58;;;14.30;;
23300;SDS011;11819;51.394;12.340;2023-06-24T06:17:12;20.42;;;14.23;;
23300;SDS011;11819;51.394;12.340;2023-06-24T06:19:38;19.30;;;13.52;;
23300;SDS011;11819;51.394;12.340;2023-06-24T06:22:06;19.42;;;14.48;;
23300;SDS011;11819;51.394;12.340;2023-06-24T06:24:32;18.77;;;14.05;;
23300;SDS011;11819;51.394;12.340;2023-06-24T06:26:57;21.52;;;14.82;;
23300;SDS011;11819;51.394;12.340;2023-06-24T06:29:24;21.33;;;14.13;;
23300;SDS011;11819;51.394;12.340;2023-06-24T06:31:49;25.77;;;14.52;;
23300;SDS011;11819;51.394;12.340;2023-06-24T06:34:15;22.33;;;14.57;;
23300;SDS011;11819;51.394;12.340;2023-06-24T06:36:41;20.33;;;14.48;;
23300;SDS011;11819;51.394;12.340;2023-06-24T06:39:07;19.98;;;14.88;;
23300;SDS011;11819;51.394;12.340;2023-06-24T06:41:32;21.77;;;14.85;;
23300;SDS011;11819;51.394;12.340;2023-06-24T06:43:58;21.10;;;15.50;;
23300;SDS011;11819;51.394;12.340;2023-06-24T06:46:23;19.33;;;14.60;;
23300;SDS011;11819;51.394;12.340;2023-06-24T06:48:49;20.98;;;15.05;;
23300;SDS011;11819;51.394;12.340;2023-06-24T06:51:15;19.20;;;14.27;;
23300;SDS011;11819;51.394;12.340;2023-06-24T06:53:43;19.95;;;14.73;;
23300;SDS011;11819;51.394;12.340;2023-06-24T06:56:16;22.27;;;14.55;;
23300;SDS011;11819;51.394;12.340;2023-06-24T06:58:47;20.70;;;15.15;;
23300;SDS011;11819;51.394;12.340;2023-06-24T07:01:12;20.02;;;14.35;;
23300;SDS011;11819;51.394;12.340;2023-06-24T07:03:38;21.00;;;14.95;;
23300;SDS011;11819;51.394;12.340;2023-06-24T07:06:04;20.13;;;14.43;;
23300;SDS011;11819;51.394;12.340;2023-06-24T07:08:31;20.73;;;14.30;;
23300;SDS011;11819;51.394;12.340;2023-06-24T07:10:56;18.92;;;13.93;;
23300;SDS011;11819;51.394;12.340;2023-06-24T07:13:22;20.40;;;14.38;;
23300;SDS011;11819;51.394;12.340;2023-06-24T07:15:48;20.90;;;14.43;;
23300;SDS011;11819;51.394;12.340;2023-06-24T07:18:13;18.60;;;12.95;;
23300;SDS011;11819;51.394;12.340;2023-06-24T07:20:39;20.35;;;14.57;;
23300;SDS011;11819;51.394;12.340;2023-06-24T07:23:04;20.42;;;15.93;;
23300;SDS011;11819;51.394;12.340;2023-06-24T07:25:30;19.55;;;14.60;;
23300;SDS011;11819;51.394;12.340;2023-06-24T07:27:56;20.48;;;15.15;;
23300;SDS011;11819;51.394;12.340;2023-06-24T07:30:21;19.73;;;14.85;;
23300;SDS011;11819;51.394;12.340;2023-06-24T07:32:47;19.45;;;14.77;;
23300;SDS011;11819;51.394;12.340;2023-06-24T07:35:13;19.63;;;14.50;;
23300;SDS011;11819;51.394;12.340;2023-06-24T07:37:40;16.88;;;13.75;;
23300;SDS011;11819;51.394;12.340;2023-06-24T07:40:06;16.90;;;13.23;;
23300;SDS011;11819;51.394;12.340;2023-06-24T07:42:34;19.15;;;13.52;;
23300;SDS011;11819;51.394;12.340;2023-06-24T07:44:59;17.95;;;13.30;;
23300;SDS011;11819;51.394;12.340;2023-06-24T07:47:25;14.73;;;11.32;;
23300;SDS011;11819;51.394;12.340;2023-06-24T07:49:52;14.82;;;12.50;;
23300;SDS011;11819;51.394;12.340;2023-06-24T07:52:18;17.73;;;13.82;;
23300;SDS011;11819;51.394;12.340;2023-06-24T07:54:43;15.48;;;12.65;;
23300;SDS011;11819;51.394;12.340;2023-06-24T07:57:09;19.85;;;13.85;;
23300;SDS011;11819;51.394;12.340;2023-06-24T07:59:34;19.10;;;14.52;;
23300;SDS011;11819;51.394;12.340;2023-06-24T08:02:01;20.05;;;14.57;;
23300;SDS011;11819;51.394;12.340;2023-06-24T08:04:27;17.58;;;13.02;;
23300;SDS011;11819;51.394;12.340;2023-06-24T08:06:52;19.83;;;13.75;;
23300;SDS011;11819;51.394;12.340;2023-06-24T08:09:18;19.58;;;14.20;;
23300;SDS011;11819;51.394;12.340;2023-06-24T08:11:44;18.23;;;12.88;;
23300;SDS011;11819;51.394;12.340;2023-06-24T08:14:10;16.63;;;11.60;;
23300;SDS011;11819;51.394;12.340;2023-06-24T08:16:37;14.10;;;10.13;;
23300;SDS011;11819;51.394;12.340;2023-06-24T08:19:03;13.90;;;10.32;;
23300;SDS011;11819;51.394;12.340;2023-06-24T08:21:28;16.65;;;11.07;;
23300;SDS011;11819;51.394;12.340;2023-06-24T08:23:55;16.70;;;11.95;;
23300;SDS011;11819;51.394;12.340;2023-06-24T08:26:21;14.50;;;10.77;;
23300;SDS011;11819;51.394;12.340;2023-06-24T08:28:47;14.38;;;11.23;;
23300;SDS011;11819;51.394;12.340;2023-06-24T08:31:13;15.57;;;10.65;;
23300;SDS011;11819;51.394;12.340;2023-06-24T08:33:38;15.38;;;9.65;;
23300;SDS011;11819;51.394;12.340;2023-06-24T08:36:11;13.63;;;9.52;;
23300;SDS011;11819;51.394;12.340;2023-06-24T08:38:37;14.90;;;10.77;;
23300;SDS011;11819;51.394;12.340;2023-06-24T08:41:02;13.55;;;10.02;;
23300;SDS011;11819;51.394;12.340;2023-06-24T08:43:28;13.07;;;10.43;;
23300;SDS011;11819;51.394;12.340;2023-06-24T08:45:54;13.57;;;10.35;;
23300;SDS011;11819;51.394;12.340;2023-06-24T08:48:21;13.93;;;10.38;;
23300;SDS011;11819;51.394;12.340;2023-06-24T08:50:50;13.85;;;10.90;;
23300;SDS011;11819;51.394;12.340;2023-06-24T08:53:18;14.65;;;10.00;;
23300;SDS011;11819;51.394;12.340;2023-06-24T08:55:47;12.63;;;9.80;;
23300;SDS011;11819;51.394;12.340;2023-06-24T08:58:22;12.35;;;9.52;;
23300;SDS011;11819;51.394;12.340;2023-06-24T09:00:49;13.02;;;10.35;;
23300;SDS011;11819;51.394;12.340;2023-06-24T09:03:15;11.20;;;9.20;;
23300;SDS011;11819;51.394;12.340;2023-06-24T09:05:41;10.27;;;8.63;;
23300;SDS011;11819;51.394;12.340;2023-06-24T09:08:06;12.63;;;9.30;;
23300;SDS011;11819;51.394;12.340;2023-06-24T09:10:32;11.25;;;9.43;;
23300;SDS011;11819;51.394;12.340;2023-06-24T09:13:00;14.05;;;8.88;;
23300;SDS011;11819;51.394;12.340;2023-06-24T09:15:37;10.32;;;8.63;;
23300;SDS011;11819;51.394;12.340;2023-06-24T09:18:03;12.98;;;8.93;;
23300;SDS011;11819;51.394;12.340;2023-06-24T09:20:30;11.50;;;8.77;;
23300;SDS011;11819;51.394;12.340;2023-06-24T09:23:03;11.38;;;9.27;;
23300;SDS011;11819;51.394;12.340;2023-06-24T09:25:30;10.63;;;9.07;;
23300;SDS011;11819;51.394;12.340;2023-06-24T09:28:00;12.18;;;9.73;;
23300;SDS011;11819;51.394;12.340;2023-06-24T09:30:26;14.32;;;10.48;;
23300;SDS011;11819;51.394;12.340;2023-06-24T09:35:25;12.68;;;9.30;;
23300;SDS011;11819;51.394;12.340;2023-06-24T09:37:52;11.13;;;8.95;;
23300;SDS011;11819;51.394;12.340;2023-06-24T09:40:19;10.52;;;8.98;;
23300;SDS011;11819;51.394;12.340;2023-06-24T09:42:54;11.57;;;9.63;;
23300;SDS011;11819;51.394;12.340;2023-06-24T09:45:23;11.57;;;8.82;;
23300;SDS011;11819;51.394;12.340;2023-06-24T09:47:51;12.57;;;9.52;;
23300;SDS011;11819;51.394;12.340;2023-06-24T09:50:17;11.05;;;8.73;;
23300;SDS011;11819;51.394;12.340;2023-06-24T09:55:14;11.50;;;9.25;;
23300;SDS011;11819;51.394;12.340;2023-06-24T09:57:43;11.27;;;8.75;;
23300;SDS011;11819;51.394;12.340;2023-06-24T10:00:14;11.63;;;9.07;;
23300;SDS011;11819;51.394;12.340;2023-06-24T10:02:43;11.35;;;8.65;;
23300;SDS011;11819;51.394;12.340;2023-06-24T10:05:10;10.65;;;8.10;;
23300;SDS011;11819;51.394;12.340;2023-06-24T10:07:38;9.50;;;7.97;;
23300;SDS011;11819;51.394;12.340;2023-06-24T10:10:06;10.25;;;7.45;;
23300;SDS011;11819;51.394;12.340;2023-06-24T10:12:33;9.75;;;8.20;;
23300;SDS011;11819;51.394;12.340;2023-06-24T10:15:03;11.85;;;9.00;;
23300;SDS011;11819;51.394;12.340;2023-06-24T10:17:30;10.60;;;8.40;;
23300;SDS011;11819;51.394;12.340;2023-06-24T10:19:56;11.07;;;8.73;;
23300;SDS011;11819;51.394;12.340;2023-06-24T10:22:24;11.75;;;8.23;;
23300;SDS011;11819;51.394;12.340;2023-06-24T10:24:52;10.43;;;7.80;;
23300;SDS011;11819;51.394;12.340;2023-06-24T10:27:19;10.00;;;7.35;;
23300;SDS011;11819;51.394;12.340;2023-06-24T10:29:52;10.32;;;8.13;;
23300;SDS011;11819;51.394;12.340;2023-06-24T10:32:21;10.77;;;8.00;;
23300;SDS011;11819;51.394;12.340;2023-06-24T10:34:56;9.93;;;8.65;;
23300;SDS011;11819;51.394;12.340;2023-06-24T10:37:25;10.00;;;7.90;;
23300;SDS011;11819;51.394;12.340;2023-06-24T10:39:55;10.40;;;7.43;;
23300;SDS011;11819;51.394;12.340;2023-06-24T10:42:38;9.68;;;6.38;;
23300;SDS011;11819;51.394;12.340;2023-06-24T10:47:39;10.27;;;7.88;;
23300;SDS011;11819;51.394;12.340;2023-06-24T10:50:06;10.02;;;7.25;;
23300;SDS011;11819;51.394;12.340;2023-06-24T10:52:37;10.55;;;7.43;;
23300;SDS011;11819;51.394;12.340;2023-06-24T10:55:07;10.50;;;8.02;;
23300;SDS011;11819;51.394;12.340;2023-06-24T10:57:33;8.10;;;6.88;;
23300;SDS011;11819;51.394;12.340;2023-06-24T10:59:59;8.73;;;7.40;;
23300;SDS011;11819;51.394;12.340;2023-06-24T11:02:27;9.63;;;7.35;;
23300;SDS011;11819;51.394;12.340;2023-06-24T11:04:53;9.63;;;7.60;;
23300;SDS011;11819;51.394;12.340;2023-06-24T11:07:21;9.85;;;7.15;;
23300;SDS011;11819;51.394;12.340;2023-06-24T11:09:52;9.52;;;6.55;;
23300;SDS011;11819;51.394;12.340;2023-06-24T11:12:19;7.88;;;5.97;;
23300;SDS011;11819;51.394;12.340;2023-06-24T11:14:49;9.07;;;6.15;;
23300;SDS011;11819;51.394;12.340;2023-06-24T11:17:16;9.98;;;6.88;;
23300;SDS011;11819;51.394;12.340;2023-06-24T11:19:44;9.13;;;6.90;;
23300;SDS011;11819;51.394;12.340;2023-06-24T11:22:10;10.27;;;7.10;;
23300;SDS011;11819;51.394;12.340;2023-06-24T11:24:35;9.13;;;6.65;;
23300;SDS011;11819;51.394;12.340;2023-06-24T11:27:01;8.07;;;6.70;;
23300;SDS011;11819;51.394;12.340;2023-06-24T11:29:29;8.43;;;6.68;;
23300;SDS011;11819;51.394;12.340;2023-06-24T11:31:58;9.02;;;7.20;;
23300;SDS011;11819;51.394;12.340;2023-06-24T11:34:24;8.38;;;6.28;;
23300;SDS011;11819;51.394;12.340;2023-06-24T11:36:52;8.65;;;7.10;;
23300;SDS011;11819;51.394;12.340;2023-06-24T11:39:25;10.05;;;7.03;;
23300;SDS011;11819;51.394;12.340;2023-06-24T11:41:57;7.68;;;5.82;;
23300;SDS011;11819;51.394;12.340;2023-06-24T11:44:26;7.95;;;6.35;;
23300;SDS011;11819;51.394;12.340;2023-06-24T11:46:52;7.97;;;5.25;;
23300;SDS011;11819;51.394;12.340;2023-06-24T11:49:21;8.15;;;5.57;;
23300;SDS011;11819;51.394;12.340;2023-06-24T11:51:50;8.10;;;5.57;;
23300;SDS011;11819;51.394;12.340;2023-06-24T11:56:53;8.10;;;6.15;;
23300;SDS011;11819;51.394;12.340;2023-06-24T11:59:22;9.05;;;6.38;;
23300;SDS011;11819;51.394;12.340;2023-06-24T12:01:57;9.80;;;5.75;;
23300;SDS011;11819;51.394;12.340;2023-06-24T12:04:28;7.20;;;5.38;;
23300;SDS011;11819;51.394;12.340;2023-06-24T12:06:57;7.60;;;5.50;;
23300;SDS011;11819;51.394;12.340;2023-06-24T12:09:23;7.70;;;5.90;;
23300;SDS011;11819;51.394;12.340;2023-06-24T12:11:51;8.18;;;5.35;;
23300;SDS011;11819;51.394;12.340;2023-06-24T12:14:24;9.90;;;5.93;;
23300;SDS011;11819;51.394;12.340;2023-06-24T12:16:50;8.68;;;6.20;;
23300;SDS011;11819;51.394;12.340;2023-06-24T12:19:15;8.38;;;5.85;;
23300;SDS011;11819;51.394;12.340;2023-06-24T12:21:46;8.60;;;5.93;;
23300;SDS011;11819;51.394;12.340;2023-06-24T12:24:13;7.63;;;5.32;;
23300;SDS011;11819;51.394;12.340;2023-06-24T12:26:40;10.35;;;5.78;;
23300;SDS011;11819;51.394;12.340;2023-06-24T12:29:12;7.82;;;5.30;;
23300;SDS011;11819;51.394;12.340;2023-06-24T12:31:38;7.13;;;5.53;;
23300;SDS011;11819;51.394;12.340;2023-06-24T12:34:04;7.40;;;5.47;;
23300;SDS011;11819;51.394;12.340;2023-06-24T12:36:30;6.72;;;5.82;;
23300;SDS011;11819;51.394;12.340;2023-06-24T12:38:56;7.43;;;5.32;;
23300;SDS011;11819;51.394;12.340;2023-06-24T12:41:28;8.80;;;5.78;;
23300;SDS011;11819;51.394;12.340;2023-06-24T12:43:53;6.90;;;5.68;;
23300;SDS011;11819;51.394;12.340;2023-06-24T12:46:22;6.03;;;5.15;;
23300;SDS011;11819;51.394;12.340;2023-06-24T12:48:53;8.77;;;5.90;;
23300;SDS011;11819;51.394;12.340;2023-06-24T12:51:19;7.93;;;5.50;;
23300;SDS011;11819;51.394;12.340;2023-06-24T12:53:46;7.15;;;5.43;;
23300;SDS011;11819;51.394;12.340;2023-06-24T12:56:12;7.18;;;5.50;;
23300;SDS011;11819;51.394;12.340;2023-06-24T12:58:42;7.50;;;6.18;;
23300;SDS011;11819;51.394;12.340;2023-06-24T13:01:08;8.13;;;5.45;;
23300;SDS011;11819;51.394;12.340;2023-06-24T13:03:35;8.32;;;5.35;;
23300;SDS011;11819;51.394;12.340;2023-06-24T13:06:00;8.20;;;5.50;;
23300;SDS011;11819;51.394;12.340;2023-06-24T13:08:26;7.63;;;5.20;;
23300;SDS011;11819;51.394;12.340;2023-06-24T13:10:54;7.45;;;5.80;;
23300;SDS011;11819;51.394;12.340;2023-06-24T13:13:21;7.93;;;5.88;;
23300;SDS011;11819;51.394;12.340;2023-06-24T13:15:47;14.25;;;5.47;;
23300;SDS011;11819;51.394;12.340;2023-06-24T13:18:13;8.40;;;6.10;;
23300;SDS011;11819;51.394;12.340;2023-06-24T13:20:40;9.00;;;6.22;;
23300;SDS011;11819;51.394;12.340;2023-06-24T13:23:05;7.63;;;5.90;;
23300;SDS011;11819;51.394;12.340;2023-06-24T13:25:31;8.27;;;5.78;;
23300;SDS011;11819;51.394;12.340;2023-06-24T13:27:56;9.70;;;6.05;;
23300;SDS011;11819;51.394;12.340;2023-06-24T13:30:23;8.13;;;5.30;;
23300;SDS011;11819;51.394;12.340;2023-06-24T13:32:49;6.57;;;5.15;;
23300;SDS011;11819;51.394;12.340;2023-06-24T13:35:16;6.40;;;5.32;;
23300;SDS011;11819;51.394;12.340;2023-06-24T13:37:41;7.88;;;5.65;;
23300;SDS011;11819;51.394;12.340;2023-06-24T13:40:09;6.80;;;4.88;;
23300;SDS011;11819;51.394;12.340;2023-06-24T13:42:35;7.22;;;5.30;;
23300;SDS011;11819;51.394;12.340;2023-06-24T13:45:01;8.23;;;5.32;;
23300;SDS011;11819;51.394;12.340;2023-06-24T13:47:27;7.63;;;5.57;;
23300;SDS011;11819;51.394;12.340;2023-06-24T13:49:52;7.20;;;5.30;;
23300;SDS011;11819;51.394;12.340;2023-06-24T13:52:18;10.45;;;5.82;;
23300;SDS011;11819;51.394;12.340;2023-06-24T13:54:43;7.97;;;5.57;;
23300;SDS011;11819;51.394;12.340;2023-06-24T13:57:10;7.07;;;5.28;;
23300;SDS011;11819;51.394;12.340;2023-06-24T13:59:36;7.35;;;5.57;;
23300;SDS011;11819;51.394;12.340;2023-06-24T14:02:01;9.05;;;6.15;;
23300;SDS011;11819;51.394;12.340;2023-06-24T14:04:27;6.40;;;5.30;;
23300;SDS011;11819;51.394;12.340;2023-06-24T14:06:53;7.75;;;5.20;;
23300;SDS011;11819;51.394;12.340;2023-06-24T14:09:18;6.97;;;5.20;;
23300;SDS011;11819;51.394;12.340;2023-06-24T14:11:44;6.75;;;5.10;;
23300;SDS011;11819;51.394;12.340;2023-06-24T14:14:10;6.88;;;4.85;;
23300;SDS011;11819;51.394;12.340;2023-06-24T14:16:35;6.93;;;5.30;;
23300;SDS011;11819;51.394;12.340;2023-06-24T14:19:01;7.15;;;5.15;;
23300;SDS011;11819;51.394;12.340;2023-06-24T14:21:27;7.32;;;5.60;;
23300;SDS011;11819;51.394;12.340;2023-06-24T14:23:56;6.03;;;5.03;;
23300;SDS011;11819;51.394;12.340;2023-06-24T14:26:22;7.00;;;5.13;;
23300;SDS011;11819;51.394;12.340;2023-06-24T14:28:50;6.78;;;5.32;;
23300;SDS011;11819;51.394;12.340;2023-06-24T14:31:15;6.95;;;5.25;;
23300;SDS011;11819;51.394;12.340;2023-06-24T14:33:41;6.53;;;5.40;;
23300;SDS011;11819;51.394;12.340;2023-06-24T14:36:13;6.63;;;5.15;;
23300;SDS011;11819;51.394;12.340;2023-06-24T14:38:38;7.10;;;5.00;;
23300;SDS011;11819;51.394;12.340;2023-06-24T14:41:04;6.40;;;4.97;;